Palmeirandia, Brazil
Current Conditions -  °F | °C
As of 5:00 AM on Wednesday 26 Nov 2014 (Local Time) from SBSL Reporting Station
Scattered Clouds Scattered Clouds  
Wind Chill: 81°   Ceiling: Unl
Heat Index: 84°   Visibility: 6mi
Dew Point: 70°   Wind: 12mph
Humidity: 70%   Direction: 70°ENE
Pressure: 29.8"   Gusts: NA
Location:  2.65°S, 44.89°W
Report Text: SBSL 260800Z 07010KT 9999 SCT017 27/21 Q1009
Loading
Personal Weather Stations






























Interactive Weather Map New forecast layout! Learn more

10-Day Weather Forecast

Advertisements
Track Severe Weather on mobile